sensor_id;sensor_type;location;lat;lon;timestamp;P1;durP1;ratioP1;P2;durP2;ratioP2
62633;SDS011;48704;50.534;6.442;2022-07-29T00:00:18;3.97;;;1.67;;
62633;SDS011;48704;50.534;6.442;2022-07-29T00:02:43;4.97;;;1.70;;
62633;SDS011;48704;50.534;6.442;2022-07-29T00:05:09;3.95;;;1.38;;
62633;SDS011;48704;50.534;6.442;2022-07-29T00:07:35;3.83;;;1.60;;
62633;SDS011;48704;50.534;6.442;2022-07-29T00:10:00;5.03;;;1.70;;
62633;SDS011;48704;50.534;6.442;2022-07-29T00:12:25;3.85;;;1.77;;
62633;SDS011;48704;50.534;6.442;2022-07-29T00:14:51;3.33;;;1.70;;
62633;SDS011;48704;50.534;6.442;2022-07-29T00:17:20;4.45;;;1.60;;
62633;SDS011;48704;50.534;6.442;2022-07-29T00:19:45;5.85;;;1.55;;
62633;SDS011;48704;50.534;6.442;2022-07-29T00:22:10;5.35;;;1.90;;
62633;SDS011;48704;50.534;6.442;2022-07-29T00:24:36;4.18;;;1.80;;
62633;SDS011;48704;50.534;6.442;2022-07-29T00:27:01;3.55;;;1.65;;
62633;SDS011;48704;50.534;6.442;2022-07-29T00:29:26;6.75;;;2.08;;
62633;SDS011;48704;50.534;6.442;2022-07-29T00:31:52;6.55;;;1.85;;
62633;SDS011;48704;50.534;6.442;2022-07-29T00:34:17;5.65;;;1.60;;
62633;SDS011;48704;50.534;6.442;2022-07-29T00:37:01;4.25;;;1.90;;
62633;SDS011;48704;50.534;6.442;2022-07-29T00:39:26;5.05;;;1.80;;
62633;SDS011;48704;50.534;6.442;2022-07-29T00:41:52;4.20;;;1.85;;
62633;SDS011;48704;50.534;6.442;2022-07-29T00:44:17;4.93;;;1.67;;
62633;SDS011;48704;50.534;6.442;2022-07-29T00:46:42;3.47;;;1.58;;
62633;SDS011;48704;50.534;6.442;2022-07-29T00:49:08;3.13;;;1.58;;
62633;SDS011;48704;50.534;6.442;2022-07-29T00:51:36;3.45;;;1.42;;
62633;SDS011;48704;50.534;6.442;2022-07-29T00:54:02;4.45;;;1.70;;
62633;SDS011;48704;50.534;6.442;2022-07-29T00:56:32;3.95;;;1.63;;
62633;SDS011;48704;50.534;6.442;2022-07-29T00:58:58;4.22;;;1.70;;
62633;SDS011;48704;50.534;6.442;2022-07-29T01:01:24;8.43;;;1.77;;
62633;SDS011;48704;50.534;6.442;2022-07-29T01:03:50;4.57;;;1.70;;
62633;SDS011;48704;50.534;6.442;2022-07-29T01:06:16;3.10;;;1.58;;
62633;SDS011;48704;50.534;6.442;2022-07-29T01:08:43;4.22;;;1.60;;
62633;SDS011;48704;50.534;6.442;2022-07-29T01:11:09;4.65;;;1.80;;
62633;SDS011;48704;50.534;6.442;2022-07-29T01:13:35;3.35;;;1.98;;
62633;SDS011;48704;50.534;6.442;2022-07-29T01:16:03;3.92;;;1.90;;
62633;SDS011;48704;50.534;6.442;2022-07-29T01:18:34;6.97;;;1.87;;
62633;SDS011;48704;50.534;6.442;2022-07-29T01:21:12;6.35;;;2.08;;
62633;SDS011;48704;50.534;6.442;2022-07-29T01:27:26;3.55;;;1.70;;
62633;SDS011;48704;50.534;6.442;2022-07-29T01:30:03;4.65;;;1.80;;
62633;SDS011;48704;50.534;6.442;2022-07-29T01:32:31;5.60;;;2.13;;
62633;SDS011;48704;50.534;6.442;2022-07-29T01:37:48;7.93;;;1.98;;
62633;SDS011;48704;50.534;6.442;2022-07-29T01:40:24;3.40;;;1.55;;
62633;SDS011;48704;50.534;6.442;2022-07-29T01:42:54;3.28;;;1.73;;
62633;SDS011;48704;50.534;6.442;2022-07-29T01:48:13;3.42;;;1.50;;
62633;SDS011;48704;50.534;6.442;2022-07-29T01:50:48;4.82;;;1.70;;
62633;SDS011;48704;50.534;6.442;2022-07-29T01:53:21;4.45;;;1.77;;
62633;SDS011;48704;50.534;6.442;2022-07-29T01:55:52;3.75;;;1.48;;
62633;SDS011;48704;50.534;6.442;2022-07-29T01:58:19;4.57;;;2.00;;
62633;SDS011;48704;50.534;6.442;2022-07-29T02:00:46;5.18;;;2.28;;
62633;SDS011;48704;50.534;6.442;2022-07-29T02:03:14;6.47;;;1.98;;
62633;SDS011;48704;50.534;6.442;2022-07-29T02:05:42;4.07;;;1.70;;
62633;SDS011;48704;50.534;6.442;2022-07-29T02:08:10;4.47;;;2.33;;
62633;SDS011;48704;50.534;6.442;2022-07-29T02:10:38;7.43;;;2.13;;
62633;SDS011;48704;50.534;6.442;2022-07-29T02:13:05;9.35;;;2.08;;
62633;SDS011;48704;50.534;6.442;2022-07-29T02:15:34;4.03;;;1.55;;
62633;SDS011;48704;50.534;6.442;2022-07-29T02:18:02;3.65;;;2.10;;
62633;SDS011;48704;50.534;6.442;2022-07-29T02:20:32;8.15;;;2.30;;
62633;SDS011;48704;50.534;6.442;2022-07-29T02:22:58;4.03;;;2.03;;
62633;SDS011;48704;50.534;6.442;2022-07-29T02:25:25;5.68;;;2.45;;
62633;SDS011;48704;50.534;6.442;2022-07-29T02:27:52;4.82;;;2.10;;
62633;SDS011;48704;50.534;6.442;2022-07-29T02:30:19;3.38;;;1.83;;
62633;SDS011;48704;50.534;6.442;2022-07-29T02:32:47;6.53;;;1.80;;
62633;SDS011;48704;50.534;6.442;2022-07-29T02:35:14;4.55;;;1.80;;
62633;SDS011;48704;50.534;6.442;2022-07-29T02:37:41;4.65;;;2.22;;
62633;SDS011;48704;50.534;6.442;2022-07-29T02:40:10;5.35;;;2.10;;
62633;SDS011;48704;50.534;6.442;2022-07-29T02:42:39;4.70;;;2.10;;
62633;SDS011;48704;50.534;6.442;2022-07-29T02:45:07;3.67;;;1.95;;
62633;SDS011;48704;50.534;6.442;2022-07-29T02:47:38;4.20;;;2.20;;
62633;SDS011;48704;50.534;6.442;2022-07-29T02:50:14;2.92;;;1.80;;
62633;SDS011;48704;50.534;6.442;2022-07-29T02:55:29;6.80;;;2.60;;
62633;SDS011;48704;50.534;6.442;2022-07-29T02:58:02;8.90;;;2.77;;
62633;SDS011;48704;50.534;6.442;2022-07-29T03:00:34;3.97;;;2.42;;
62633;SDS011;48704;50.534;6.442;2022-07-29T03:03:03;5.18;;;2.03;;
62633;SDS011;48704;50.534;6.442;2022-07-29T03:05:32;5.15;;;2.50;;
62633;SDS011;48704;50.534;6.442;2022-07-29T03:07:58;5.88;;;2.40;;
62633;SDS011;48704;50.534;6.442;2022-07-29T03:10:36;3.95;;;1.73;;
62633;SDS011;48704;50.534;6.442;2022-07-29T03:13:03;7.15;;;2.08;;
62633;SDS011;48704;50.534;6.442;2022-07-29T03:15:30;4.72;;;2.22;;
62633;SDS011;48704;50.534;6.442;2022-07-29T03:17:55;7.55;;;2.60;;
62633;SDS011;48704;50.534;6.442;2022-07-29T03:20:21;4.47;;;2.17;;
62633;SDS011;48704;50.534;6.442;2022-07-29T03:22:47;7.50;;;2.53;;
62633;SDS011;48704;50.534;6.442;2022-07-29T03:25:16;6.97;;;2.53;;
62633;SDS011;48704;50.534;6.442;2022-07-29T03:27:43;5.32;;;2.35;;
62633;SDS011;48704;50.534;6.442;2022-07-29T03:30:09;4.10;;;2.22;;
62633;SDS011;48704;50.534;6.442;2022-07-29T03:32:36;4.45;;;2.10;;
62633;SDS011;48704;50.534;6.442;2022-07-29T03:35:02;4.72;;;2.13;;
62633;SDS011;48704;50.534;6.442;2022-07-29T03:37:28;5.82;;;2.55;;
62633;SDS011;48704;50.534;6.442;2022-07-29T03:39:55;3.80;;;2.30;;
62633;SDS011;48704;50.534;6.442;2022-07-29T03:42:23;6.32;;;2.03;;
62633;SDS011;48704;50.534;6.442;2022-07-29T03:44:50;3.85;;;2.20;;
62633;SDS011;48704;50.534;6.442;2022-07-29T03:47:17;5.40;;;3.38;;
62633;SDS011;48704;50.534;6.442;2022-07-29T03:49:46;4.13;;;2.28;;
62633;SDS011;48704;50.534;6.442;2022-07-29T03:52:14;5.10;;;2.40;;
62633;SDS011;48704;50.534;6.442;2022-07-29T03:54:39;5.78;;;2.08;;
62633;SDS011;48704;50.534;6.442;2022-07-29T03:57:05;5.20;;;2.15;;
62633;SDS011;48704;50.534;6.442;2022-07-29T03:59:34;6.47;;;2.33;;
62633;SDS011;48704;50.534;6.442;2022-07-29T04:02:00;8.20;;;2.40;;
62633;SDS011;48704;50.534;6.442;2022-07-29T04:04:28;5.30;;;2.30;;
62633;SDS011;48704;50.534;6.442;2022-07-29T04:06:53;4.38;;;2.05;;
62633;SDS011;48704;50.534;6.442;2022-07-29T04:09:18;6.65;;;2.38;;
62633;SDS011;48704;50.534;6.442;2022-07-29T04:11:44;5.05;;;2.13;;
62633;SDS011;48704;50.534;6.442;2022-07-29T04:14:10;6.93;;;2.50;;
62633;SDS011;48704;50.534;6.442;2022-07-29T04:16:35;10.18;;;2.80;;
62633;SDS011;48704;50.534;6.442;2022-07-29T04:19:00;4.32;;;2.45;;
62633;SDS011;48704;50.534;6.442;2022-07-29T04:21:26;8.38;;;2.90;;
62633;SDS011;48704;50.534;6.442;2022-07-29T04:23:51;9.32;;;2.60;;
62633;SDS011;48704;50.534;6.442;2022-07-29T04:26:17;4.88;;;2.28;;
62633;SDS011;48704;50.534;6.442;2022-07-29T04:28:43;5.10;;;2.40;;
62633;SDS011;48704;50.534;6.442;2022-07-29T04:31:09;6.35;;;2.40;;
62633;SDS011;48704;50.534;6.442;2022-07-29T04:33:35;7.85;;;2.33;;
62633;SDS011;48704;50.534;6.442;2022-07-29T04:36:00;6.60;;;2.50;;
62633;SDS011;48704;50.534;6.442;2022-07-29T04:38:25;3.45;;;2.15;;
62633;SDS011;48704;50.534;6.442;2022-07-29T04:40:51;9.35;;;2.90;;
62633;SDS011;48704;50.534;6.442;2022-07-29T04:43:16;6.72;;;2.20;;
62633;SDS011;48704;50.534;6.442;2022-07-29T04:45:42;3.45;;;2.25;;
62633;SDS011;48704;50.534;6.442;2022-07-29T04:48:07;5.10;;;2.50;;
62633;SDS011;48704;50.534;6.442;2022-07-29T04:50:33;6.47;;;2.78;;
62633;SDS011;48704;50.534;6.442;2022-07-29T04:52:58;8.10;;;3.00;;
62633;SDS011;48704;50.534;6.442;2022-07-29T04:55:23;7.95;;;3.00;;
62633;SDS011;48704;50.534;6.442;2022-07-29T04:57:49;7.90;;;2.88;;
62633;SDS011;48704;50.534;6.442;2022-07-29T05:00:15;8.38;;;3.13;;
62633;SDS011;48704;50.534;6.442;2022-07-29T05:02:40;11.50;;;3.72;;
62633;SDS011;48704;50.534;6.442;2022-07-29T05:05:05;17.77;;;7.35;;
62633;SDS011;48704;50.534;6.442;2022-07-29T05:07:32;10.05;;;5.13;;
62633;SDS011;48704;50.534;6.442;2022-07-29T05:09:57;14.10;;;5.15;;
62633;SDS011;48704;50.534;6.442;2022-07-29T05:12:23;10.65;;;4.20;;
62633;SDS011;48704;50.534;6.442;2022-07-29T05:14:49;10.80;;;3.58;;
62633;SDS011;48704;50.534;6.442;2022-07-29T05:17:14;6.15;;;4.00;;
62633;SDS011;48704;50.534;6.442;2022-07-29T05:19:40;9.32;;;4.15;;
62633;SDS011;48704;50.534;6.442;2022-07-29T05:22:05;7.82;;;4.13;;
62633;SDS011;48704;50.534;6.442;2022-07-29T05:24:31;11.88;;;5.13;;
62633;SDS011;48704;50.534;6.442;2022-07-29T05:26:56;7.97;;;4.25;;
62633;SDS011;48704;50.534;6.442;2022-07-29T05:29:21;6.88;;;4.35;;
62633;SDS011;48704;50.534;6.442;2022-07-29T05:31:47;7.95;;;3.75;;
62633;SDS011;48704;50.534;6.442;2022-07-29T05:34:12;7.70;;;3.97;;
62633;SDS011;48704;50.534;6.442;2022-07-29T05:36:38;9.73;;;4.68;;
62633;SDS011;48704;50.534;6.442;2022-07-29T05:39:03;6.28;;;3.80;;
62633;SDS011;48704;50.534;6.442;2022-07-29T05:41:31;7.82;;;4.03;;
62633;SDS011;48704;50.534;6.442;2022-07-29T05:43:57;8.57;;;3.88;;
62633;SDS011;48704;50.534;6.442;2022-07-29T05:46:23;7.95;;;3.80;;
62633;SDS011;48704;50.534;6.442;2022-07-29T05:48:49;9.25;;;4.78;;
62633;SDS011;48704;50.534;6.442;2022-07-29T05:51:14;6.95;;;3.95;;
62633;SDS011;48704;50.534;6.442;2022-07-29T05:53:39;6.57;;;4.28;;
62633;SDS011;48704;50.534;6.442;2022-07-29T05:56:05;8.35;;;4.70;;
62633;SDS011;48704;50.534;6.442;2022-07-29T05:58:31;11.38;;;4.63;;
62633;SDS011;48704;50.534;6.442;2022-07-29T06:00:56;10.88;;;5.13;;
62633;SDS011;48704;50.534;6.442;2022-07-29T06:03:24;7.75;;;4.53;;
62633;SDS011;48704;50.534;6.442;2022-07-29T06:05:50;8.68;;;4.70;;
62633;SDS011;48704;50.534;6.442;2022-07-29T06:08:15;7.25;;;4.45;;
62633;SDS011;48704;50.534;6.442;2022-07-29T06:10:40;6.93;;;4.35;;
62633;SDS011;48704;50.534;6.442;2022-07-29T06:13:06;12.05;;;4.38;;
62633;SDS011;48704;50.534;6.442;2022-07-29T06:15:31;8.38;;;4.70;;
62633;SDS011;48704;50.534;6.442;2022-07-29T06:17:56;10.20;;;4.10;;
62633;SDS011;48704;50.534;6.442;2022-07-29T06:20:22;6.07;;;4.40;;
62633;SDS011;48704;50.534;6.442;2022-07-29T06:22:47;5.40;;;3.67;;
62633;SDS011;48704;50.534;6.442;2022-07-29T06:25:12;6.50;;;4.15;;
62633;SDS011;48704;50.534;6.442;2022-07-29T06:27:38;8.45;;;4.78;;
62633;SDS011;48704;50.534;6.442;2022-07-29T06:30:03;8.20;;;4.57;;
62633;SDS011;48704;50.534;6.442;2022-07-29T06:32:32;7.50;;;4.10;;
62633;SDS011;48704;50.534;6.442;2022-07-29T06:34:58;7.38;;;3.95;;
62633;SDS011;48704;50.534;6.442;2022-07-29T06:37:23;8.30;;;4.90;;
62633;SDS011;48704;50.534;6.442;2022-07-29T06:39:49;9.40;;;4.78;;
62633;SDS011;48704;50.534;6.442;2022-07-29T06:42:34;9.13;;;4.88;;
62633;SDS011;48704;50.534;6.442;2022-07-29T06:44:59;13.30;;;5.72;;
62633;SDS011;48704;50.534;6.442;2022-07-29T06:47:25;11.07;;;4.90;;
62633;SDS011;48704;50.534;6.442;2022-07-29T06:49:50;10.02;;;6.43;;
62633;SDS011;48704;50.534;6.442;2022-07-29T06:52:15;10.80;;;6.55;;
62633;SDS011;48704;50.534;6.442;2022-07-29T06:54:40;10.57;;;4.93;;
62633;SDS011;48704;50.534;6.442;2022-07-29T06:57:12;11.38;;;4.85;;
62633;SDS011;48704;50.534;6.442;2022-07-29T06:59:38;10.73;;;4.35;;
62633;SDS011;48704;50.534;6.442;2022-07-29T07:02:03;9.35;;;5.00;;
62633;SDS011;48704;50.534;6.442;2022-07-29T07:04:28;10.30;;;4.40;;
62633;SDS011;48704;50.534;6.442;2022-07-29T07:06:54;9.73;;;4.70;;
62633;SDS011;48704;50.534;6.442;2022-07-29T07:09:20;10.90;;;5.03;;
62633;SDS011;48704;50.534;6.442;2022-07-29T07:11:46;11.27;;;4.82;;
62633;SDS011;48704;50.534;6.442;2022-07-29T07:14:11;6.47;;;4.30;;
62633;SDS011;48704;50.534;6.442;2022-07-29T07:16:36;9.15;;;4.47;;
62633;SDS011;48704;50.534;6.442;2022-07-29T07:19:02;9.20;;;4.57;;
62633;SDS011;48704;50.534;6.442;2022-07-29T07:21:27;7.18;;;4.47;;
62633;SDS011;48704;50.534;6.442;2022-07-29T07:23:53;6.82;;;4.47;;
62633;SDS011;48704;50.534;6.442;2022-07-29T07:26:18;7.13;;;4.75;;
62633;SDS011;48704;50.534;6.442;2022-07-29T07:28:44;9.38;;;5.35;;
62633;SDS011;48704;50.534;6.442;2022-07-29T07:31:10;8.43;;;5.20;;
62633;SDS011;48704;50.534;6.442;2022-07-29T07:33:35;9.30;;;4.80;;
62633;SDS011;48704;50.534;6.442;2022-07-29T07:36:00;6.50;;;4.30;;
62633;SDS011;48704;50.534;6.442;2022-07-29T07:38:26;6.78;;;3.95;;
62633;SDS011;48704;50.534;6.442;2022-07-29T07:40:51;6.32;;;3.88;;
62633;SDS011;48704;50.534;6.442;2022-07-29T07:43:17;5.95;;;3.92;;
62633;SDS011;48704;50.534;6.442;2022-07-29T07:45:42;6.22;;;3.53;;
62633;SDS011;48704;50.534;6.442;2022-07-29T07:48:07;6.38;;;3.53;;
62633;SDS011;48704;50.534;6.442;2022-07-29T07:50:35;7.22;;;4.07;;
62633;SDS011;48704;50.534;6.442;2022-07-29T07:53:00;5.55;;;3.90;;
62633;SDS011;48704;50.534;6.442;2022-07-29T07:55:27;8.30;;;4.05;;
62633;SDS011;48704;50.534;6.442;2022-07-29T07:57:53;6.95;;;3.75;;
62633;SDS011;48704;50.534;6.442;2022-07-29T08:00:19;7.70;;;3.72;;
62633;SDS011;48704;50.534;6.442;2022-07-29T08:02:44;9.10;;;3.97;;
62633;SDS011;48704;50.534;6.442;2022-07-29T08:05:10;7.63;;;3.55;;
62633;SDS011;48704;50.534;6.442;2022-07-29T08:07:38;4.82;;;3.15;;
62633;SDS011;48704;50.534;6.442;2022-07-29T08:10:04;5.47;;;3.25;;
62633;SDS011;48704;50.534;6.442;2022-07-29T08:12:29;6.70;;;3.30;;
62633;SDS011;48704;50.534;6.442;2022-07-29T08:14:55;6.53;;;3.25;;
62633;SDS011;48704;50.534;6.442;2022-07-29T08:17:20;6.53;;;3.28;;
62633;SDS011;48704;50.534;6.442;2022-07-29T08:19:45;7.60;;;4.28;;
62633;SDS011;48704;50.534;6.442;2022-07-29T08:22:12;8.10;;;3.90;;
62633;SDS011;48704;50.534;6.442;2022-07-29T08:24:38;10.35;;;3.75;;
62633;SDS011;48704;50.534;6.442;2022-07-29T08:27:12;6.53;;;3.47;;
62633;SDS011;48704;50.534;6.442;2022-07-29T08:29:39;5.32;;;2.80;;
62633;SDS011;48704;50.534;6.442;2022-07-29T08:32:05;8.75;;;3.70;;
62633;SDS011;48704;50.534;6.442;2022-07-29T08:34:31;7.25;;;3.80;;
62633;SDS011;48704;50.534;6.442;2022-07-29T08:36:57;5.70;;;3.05;;
62633;SDS011;48704;50.534;6.442;2022-07-29T08:39:22;8.85;;;3.65;;
62633;SDS011;48704;50.534;6.442;2022-07-29T08:41:49;6.03;;;3.45;;
62633;SDS011;48704;50.534;6.442;2022-07-29T08:44:16;5.47;;;3.17;;
62633;SDS011;48704;50.534;6.442;2022-07-29T08:46:44;8.55;;;3.50;;
62633;SDS011;48704;50.534;6.442;2022-07-29T08:49:10;5.47;;;3.58;;
62633;SDS011;48704;50.534;6.442;2022-07-29T08:51:35;5.20;;;3.20;;
62633;SDS011;48704;50.534;6.442;2022-07-29T08:54:03;8.80;;;3.15;;
62633;SDS011;48704;50.534;6.442;2022-07-29T08:56:30;6.13;;;3.08;;
62633;SDS011;48704;50.534;6.442;2022-07-29T08:58:55;9.93;;;3.20;;
62633;SDS011;48704;50.534;6.442;2022-07-29T09:01:24;7.20;;;3.30;;
62633;SDS011;48704;50.534;6.442;2022-07-29T09:03:56;5.70;;;3.40;;
62633;SDS011;48704;50.534;6.442;2022-07-29T09:06:23;7.88;;;3.22;;
62633;SDS011;48704;50.534;6.442;2022-07-29T09:08:52;7.10;;;3.08;;
62633;SDS011;48704;50.534;6.442;2022-07-29T09:11:22;6.10;;;3.20;;
62633;SDS011;48704;50.534;6.442;2022-07-29T09:13:47;4.68;;;2.88;;
62633;SDS011;48704;50.534;6.442;2022-07-29T09:16:14;5.38;;;2.80;;
62633;SDS011;48704;50.534;6.442;2022-07-29T09:18:41;7.35;;;2.67;;
62633;SDS011;48704;50.534;6.442;2022-07-29T09:21:12;6.00;;;3.13;;
62633;SDS011;48704;50.534;6.442;2022-07-29T09:26:36;5.88;;;2.70;;
62633;SDS011;48704;50.534;6.442;2022-07-29T09:29:08;5.47;;;2.80;;
62633;SDS011;48704;50.534;6.442;2022-07-29T09:31:39;5.45;;;2.20;;
62633;SDS011;48704;50.534;6.442;2022-07-29T09:34:06;5.28;;;2.75;;
62633;SDS011;48704;50.534;6.442;2022-07-29T09:36:40;9.30;;;3.10;;
62633;SDS011;48704;50.534;6.442;2022-07-29T09:39:07;4.63;;;2.42;;
62633;SDS011;48704;50.534;6.442;2022-07-29T09:41:45;5.07;;;2.92;;
62633;SDS011;48704;50.534;6.442;2022-07-29T09:44:12;5.53;;;2.55;;
62633;SDS011;48704;50.534;6.442;2022-07-29T09:46:39;4.70;;;2.55;;
62633;SDS011;48704;50.534;6.442;2022-07-29T09:49:10;4.88;;;2.45;;
62633;SDS011;48704;50.534;6.442;2022-07-29T09:51:37;6.07;;;2.83;;
62633;SDS011;48704;50.534;6.442;2022-07-29T09:54:20;6.57;;;2.70;;
62633;SDS011;48704;50.534;6.442;2022-07-29T09:56:50;4.90;;;2.75;;
62633;SDS011;48704;50.534;6.442;2022-07-29T09:59:16;6.25;;;2.70;;
62633;SDS011;48704;50.534;6.442;2022-07-29T10:01:41;7.32;;;2.95;;
62633;SDS011;48704;50.534;6.442;2022-07-29T10:04:07;5.38;;;2.42;;
62633;SDS011;48704;50.534;6.442;2022-07-29T10:06:32;4.65;;;2.33;;
62633;SDS011;48704;50.534;6.442;2022-07-29T10:09:07;5.93;;;2.45;;
62633;SDS011;48704;50.534;6.442;2022-07-29T10:11:34;6.07;;;2.60;;
62633;SDS011;48704;50.534;6.442;2022-07-29T10:14:01;5.35;;;2.42;;
62633;SDS011;48704;50.534;6.442;2022-07-29T10:16:27;4.80;;;3.05;;
62633;SDS011;48704;50.534;6.442;2022-07-29T10:18:57;7.25;;;2.78;;
62633;SDS011;48704;50.534;6.442;2022-07-29T10:21:24;10.75;;;2.90;;
62633;SDS011;48704;50.534;6.442;2022-07-29T10:23:50;5.88;;;2.60;;
62633;SDS011;48704;50.534;6.442;2022-07-29T10:26:16;7.80;;;3.40;;
62633;SDS011;48704;50.534;6.442;2022-07-29T10:28:42;6.68;;;2.85;;
62633;SDS011;48704;50.534;6.442;2022-07-29T10:31:08;3.90;;;2.38;;
62633;SDS011;48704;50.534;6.442;2022-07-29T10:34:13;7.20;;;3.10;;
62633;SDS011;48704;50.534;6.442;2022-07-29T10:37:03;5.03;;;2.70;;
62633;SDS011;48704;50.534;6.442;2022-07-29T10:39:48;4.72;;;2.25;;
62633;SDS011;48704;50.534;6.442;2022-07-29T10:42:49;6.13;;;2.58;;
62633;SDS011;48704;50.534;6.442;2022-07-29T10:45:17;4.82;;;2.60;;
62633;SDS011;48704;50.534;6.442;2022-07-29T10:47:42;5.68;;;2.65;;
62633;SDS011;48704;50.534;6.442;2022-07-29T10:50:08;6.78;;;2.72;;
62633;SDS011;48704;50.534;6.442;2022-07-29T10:55:33;4.80;;;2.45;;
62633;SDS011;48704;50.534;6.442;2022-07-29T10:58:11;5.50;;;3.15;;
62633;SDS011;48704;50.534;6.442;2022-07-29T11:00:36;7.07;;;3.17;;
62633;SDS011;48704;50.534;6.442;2022-07-29T11:03:02;6.07;;;2.60;;
62633;SDS011;48704;50.534;6.442;2022-07-29T11:05:27;7.32;;;3.47;;
62633;SDS011;48704;50.534;6.442;2022-07-29T11:10:39;4.20;;;2.45;;
62633;SDS011;48704;50.534;6.442;2022-07-29T11:13:05;4.70;;;2.55;;
62633;SDS011;48704;50.534;6.442;2022-07-29T11:15:51;7.75;;;2.50;;
62633;SDS011;48704;50.534;6.442;2022-07-29T11:18:19;4.93;;;2.83;;
62633;SDS011;48704;50.534;6.442;2022-07-29T11:20:46;7.82;;;2.70;;
62633;SDS011;48704;50.534;6.442;2022-07-29T11:23:21;5.35;;;2.90;;
62633;SDS011;48704;50.534;6.442;2022-07-29T11:34:18;7.03;;;3.13;;
62633;SDS011;48704;50.534;6.442;2022-07-29T11:39:37;4.22;;;2.30;;
62633;SDS011;48704;50.534;6.442;2022-07-29T11:44:58;5.07;;;2.90;;
62633;SDS011;48704;50.534;6.442;2022-07-29T11:47:40;3.65;;;2.63;;
62633;SDS011;48704;50.534;6.442;2022-07-29T11:50:12;6.30;;;2.92;;
62633;SDS011;48704;50.534;6.442;2022-07-29T11:52:42;5.10;;;2.78;;
62633;SDS011;48704;50.534;6.442;2022-07-29T11:55:20;7.30;;;2.88;;
62633;SDS011;48704;50.534;6.442;2022-07-29T11:57:57;8.10;;;2.67;;
62633;SDS011;48704;50.534;6.442;2022-07-29T12:02:56;4.85;;;2.55;;
62633;SDS011;48704;50.534;6.442;2022-07-29T12:05:30;5.50;;;2.53;;
62633;SDS011;48704;50.534;6.442;2022-07-29T12:07:58;5.63;;;2.45;;
62633;SDS011;48704;50.534;6.442;2022-07-29T12:10:32;4.95;;;2.72;;
62633;SDS011;48704;50.534;6.442;2022-07-29T12:12:58;3.95;;;3.10;;
62633;SDS011;48704;50.534;6.442;2022-07-29T12:15:24;7.22;;;2.97;;
62633;SDS011;48704;50.534;6.442;2022-07-29T12:17:51;3.75;;;2.72;;
62633;SDS011;48704;50.534;6.442;2022-07-29T12:20:26;4.38;;;2.63;;
62633;SDS011;48704;50.534;6.442;2022-07-29T12:22:53;6.32;;;2.92;;
62633;SDS011;48704;50.534;6.442;2022-07-29T12:25:20;5.10;;;2.80;;
62633;SDS011;48704;50.534;6.442;2022-07-29T12:27:47;4.03;;;2.75;;
62633;SDS011;48704;50.534;6.442;2022-07-29T12:30:16;5.53;;;3.05;;
62633;SDS011;48704;50.534;6.442;2022-07-29T12:32:42;6.60;;;2.63;;
62633;SDS011;48704;50.534;6.442;2022-07-29T12:35:12;5.65;;;2.92;;
62633;SDS011;48704;50.534;6.442;2022-07-29T12:37:39;4.43;;;2.35;;
62633;SDS011;48704;50.534;6.442;2022-07-29T12:40:07;4.38;;;2.70;;
62633;SDS011;48704;50.534;6.442;2022-07-29T12:42:33;4.78;;;2.80;;
62633;SDS011;48704;50.534;6.442;2022-07-29T12:44:59;8.00;;;3.58;;
62633;SDS011;48704;50.534;6.442;2022-07-29T12:47:26;4.30;;;3.15;;
62633;SDS011;48704;50.534;6.442;2022-07-29T12:50:06;3.50;;;2.67;;
62633;SDS011;48704;50.534;6.442;2022-07-29T12:52:33;6.47;;;3.38;;
62633;SDS011;48704;50.534;6.442;2022-07-29T12:54:59;8.05;;;3.72;;
62633;SDS011;48704;50.534;6.442;2022-07-29T12:57:25;7.10;;;3.65;;
62633;SDS011;48704;50.534;6.442;2022-07-29T13:00:03;7.15;;;3.70;;
62633;SDS011;48704;50.534;6.442;2022-07-29T13:02:33;5.95;;;3.08;;
62633;SDS011;48704;50.534;6.442;2022-07-29T13:04:59;6.07;;;3.67;;
62633;SDS011;48704;50.534;6.442;2022-07-29T13:07:26;7.40;;;3.67;;
62633;SDS011;48704;50.534;6.442;2022-07-29T13:09:54;4.38;;;3.17;;
62633;SDS011;48704;50.534;6.442;2022-07-29T13:12:34;5.00;;;3.30;;
62633;SDS011;48704;50.534;6.442;2022-07-29T13:14:59;5.65;;;3.40;;
62633;SDS011;48704;50.534;6.442;2022-07-29T13:17:25;6.97;;;3.90;;
62633;SDS011;48704;50.534;6.442;2022-07-29T13:20:05;4.15;;;2.60;;
62633;SDS011;48704;50.534;6.442;2022-07-29T13:22:34;6.22;;;3.08;;
62633;SDS011;48704;50.534;6.442;2022-07-29T13:25:00;4.28;;;2.90;;
62633;SDS011;48704;50.534;6.442;2022-07-29T13:27:32;6.85;;;3.40;;
62633;SDS011;48704;50.534;6.442;2022-07-29T13:29:59;4.82;;;3.13;;
62633;SDS011;48704;50.534;6.442;2022-07-29T13:32:26;4.72;;;3.55;;
62633;SDS011;48704;50.534;6.442;2022-07-29T13:34:53;9.40;;;3.30;;
62633;SDS011;48704;50.534;6.442;2022-07-29T13:37:20;6.22;;;4.00;;
62633;SDS011;48704;50.534;6.442;2022-07-29T13:39:45;7.65;;;4.40;;
62633;SDS011;48704;50.534;6.442;2022-07-29T13:42:12;11.52;;;4.35;;
62633;SDS011;48704;50.534;6.442;2022-07-29T13:44:38;7.07;;;4.05;;
62633;SDS011;48704;50.534;6.442;2022-07-29T13:47:07;7.85;;;3.75;;
62633;SDS011;48704;50.534;6.442;2022-07-29T13:49:33;7.60;;;4.57;;
62633;SDS011;48704;50.534;6.442;2022-07-29T13:51:58;8.05;;;4.63;;
62633;SDS011;48704;50.534;6.442;2022-07-29T13:54:24;5.80;;;4.00;;
62633;SDS011;48704;50.534;6.442;2022-07-29T13:56:49;6.53;;;4.03;;
62633;SDS011;48704;50.534;6.442;2022-07-29T13:59:15;10.70;;;4.55;;
62633;SDS011;48704;50.534;6.442;2022-07-29T14:01:41;6.85;;;3.97;;
62633;SDS011;48704;50.534;6.442;2022-07-29T14:04:07;8.23;;;3.88;;
62633;SDS011;48704;50.534;6.442;2022-07-29T14:06:33;10.35;;;3.83;;
62633;SDS011;48704;50.534;6.442;2022-07-29T14:08:58;7.00;;;3.50;;
62633;SDS011;48704;50.534;6.442;2022-07-29T14:11:24;10.75;;;4.78;;
62633;SDS011;48704;50.534;6.442;2022-07-29T14:13:49;7.43;;;4.38;;
62633;SDS011;48704;50.534;6.442;2022-07-29T14:16:15;10.93;;;4.70;;
62633;SDS011;48704;50.534;6.442;2022-07-29T14:18:40;9.25;;;4.55;;
62633;SDS011;48704;50.534;6.442;2022-07-29T14:21:05;8.90;;;3.65;;
62633;SDS011;48704;50.534;6.442;2022-07-29T14:23:31;11.82;;;6.03;;
62633;SDS011;48704;50.534;6.442;2022-07-29T14:25:56;15.70;;;4.82;;
62633;SDS011;48704;50.534;6.442;2022-07-29T14:28:21;11.07;;;4.72;;
62633;SDS011;48704;50.534;6.442;2022-07-29T14:30:47;10.00;;;4.18;;
62633;SDS011;48704;50.534;6.442;2022-07-29T14:33:12;13.93;;;5.32;;
62633;SDS011;48704;50.534;6.442;2022-07-29T14:35:39;8.85;;;4.22;;
62633;SDS011;48704;50.534;6.442;2022-07-29T14:38:05;8.07;;;3.97;;
62633;SDS011;48704;50.534;6.442;2022-07-29T14:40:30;6.85;;;4.45;;
62633;SDS011;48704;50.534;6.442;2022-07-29T14:42:56;7.93;;;4.18;;
62633;SDS011;48704;50.534;6.442;2022-07-29T14:45:21;8.60;;;4.00;;
62633;SDS011;48704;50.534;6.442;2022-07-29T14:47:47;6.65;;;3.10;;
62633;SDS011;48704;50.534;6.442;2022-07-29T14:50:14;10.88;;;4.47;;
62633;SDS011;48704;50.534;6.442;2022-07-29T14:52:39;6.53;;;3.53;;
62633;SDS011;48704;50.534;6.442;2022-07-29T14:55:05;7.43;;;3.83;;
62633;SDS011;48704;50.534;6.442;2022-07-29T14:57:34;7.25;;;3.75;;
62633;SDS011;48704;50.534;6.442;2022-07-29T15:00:09;8.55;;;4.72;;
62633;SDS011;48704;50.534;6.442;2022-07-29T15:02:35;10.60;;;4.82;;
62633;SDS011;48704;50.534;6.442;2022-07-29T15:05:01;6.13;;;3.95;;
62633;SDS011;48704;50.534;6.442;2022-07-29T15:07:26;9.30;;;4.30;;
62633;SDS011;48704;50.534;6.442;2022-07-29T15:09:52;6.70;;;3.95;;
62633;SDS011;48704;50.534;6.442;2022-07-29T15:12:17;7.63;;;3.88;;
62633;SDS011;48704;50.534;6.442;2022-07-29T15:14:42;9.10;;;3.45;;
62633;SDS011;48704;50.534;6.442;2022-07-29T15:17:08;7.47;;;4.30;;
62633;SDS011;48704;50.534;6.442;2022-07-29T15:19:33;7.15;;;4.30;;
62633;SDS011;48704;50.534;6.442;2022-07-29T15:21:59;5.00;;;3.50;;
62633;SDS011;48704;50.534;6.442;2022-07-29T15:24:26;7.00;;;3.97;;